Time;durP1;ratioP1;P1;durP2;ratioP2;P2;SDS_P1;SDS_P2;PMS_P1;PMS_P2;Temp;Humidity;BMP_temperature;BMP_pressure;BME280_temperature;BME280_humidity;BME280_pressure;Samples;Min_cycle;Max_cycle;Signal;HPM_P1;HPM_P2
2023/01/23 00:00:27;;;;;;;4.93;3.55;;;4.50;81.80;;;;;;5103610;28;20682;-65
2023/01/23 00:02:53;;;;;;;6.65;3.72;;;4.50;81.80;;;;;;5098598;28;20016;-59
2023/01/23 00:05:19;;;;;;;4.32;3.47;;;4.60;81.80;;;;;;5086178;28;20039;-59
2023/01/23 00:07:44;;;;;;;7.60;4.70;;;4.60;81.80;;;;;;5089113;28;20063;-59
2023/01/23 00:10:10;;;;;;;4.85;3.17;;;4.50;81.80;;;;;;5090227;28;20036;-60
2023/01/23 00:12:39;;;;;;;7.75;4.47;;;4.50;81.80;;;;;;5070970;28;20020;-60
2023/01/23 00:15:05;;;;;;;4.75;3.95;;;4.50;81.90;;;;;;5103620;28;20363;-60
2023/01/23 00:17:31;;;;;;;5.85;3.83;;;4.50;82.00;;;;;;5096897;28;20388;-66
2023/01/23 00:19:58;;;;;;;7.45;3.80;;;4.50;82.10;;;;;;5097991;28;20054;-66
2023/01/23 00:22:24;;;;;;;6.55;3.78;;;4.50;82.10;;;;;;5081101;28;20024;-60
2023/01/23 00:24:49;;;;;;;9.23;3.78;;;4.50;82.20;;;;;;5071675;28;20497;-59
2023/01/23 00:27:15;;;;;;;6.82;4.03;;;4.50;82.10;;;;;;5090276;28;20060;-59
2023/01/23 00:29:41;;;;;;;7.53;4.00;;;4.50;82.10;;;;;;5101248;28;20052;-60
2023/01/23 00:32:06;;;;;;;7.28;4.00;;;4.50;82.10;;;;;;5069932;28;20026;-66
2023/01/23 00:34:32;;;;;;;9.63;4.60;;;4.50;82.10;;;;;;5080934;28;20032;-59
2023/01/23 00:36:58;;;;;;;5.10;2.97;;;4.50;82.20;;;;;;5094193;28;20031;-66
2023/01/23 00:39:24;;;;;;;5.10;2.85;;;4.50;82.20;;;;;;5096075;28;20045;-66
2023/01/23 00:41:49;;;;;;;9.63;3.40;;;4.50;82.20;;;;;;5086788;28;20345;-65
2023/01/23 00:44:15;;;;;;;7.57;2.83;;;4.50;82.20;;;;;;5060683;28;20105;-66
2023/01/23 00:46:41;;;;;;;7.68;4.30;;;4.50;82.20;;;;;;5091207;28;20063;-59
2023/01/23 00:49:08;;;;;;;3.75;3.28;;;4.50;82.30;;;;;;5091262;28;20041;-59
2023/01/23 00:51:34;;;;;;;6.30;4.07;;;4.50;82.20;;;;;;5108084;28;20034;-59
2023/01/23 00:54:01;;;;;;;8.63;4.85;;;4.50;82.30;;;;;;5108357;28;20031;-60
2023/01/23 00:56:26;;;;;;;5.70;3.70;;;4.50;82.30;;;;;;5102927;28;20052;-66
2023/01/23 00:58:52;;;;;;;6.90;4.22;;;4.50;82.30;;;;;;5108342;28;20059;-66
2023/01/23 01:01:18;;;;;;;12.50;5.07;;;4.50;82.40;;;;;;5090404;28;20024;-66
2023/01/23 01:03:45;;;;;;;5.13;3.47;;;4.50;82.30;;;;;;5088834;28;20141;-59
2023/01/23 01:06:11;;;;;;;6.65;3.78;;;4.60;82.30;;;;;;5100373;28;20134;-60
2023/01/23 01:08:37;;;;;;;8.38;4.50;;;4.60;82.40;;;;;;5088728;28;20550;-60
2023/01/23 01:11:03;;;;;;;8.43;3.92;;;4.50;82.30;;;;;;5076650;28;20104;-60
2023/01/23 01:13:29;;;;;;;5.82;3.58;;;4.60;82.30;;;;;;5083880;28;20037;-60
2023/01/23 01:15:55;;;;;;;6.70;4.97;;;4.50;82.30;;;;;;5095917;28;20031;-59
2023/01/23 01:18:21;;;;;;;7.38;4.57;;;4.50;82.40;;;;;;5071057;28;20028;-66
2023/01/23 01:20:48;;;;;;;7.20;4.18;;;4.50;82.40;;;;;;5092664;28;20024;-66
2023/01/23 01:23:14;;;;;;;6.90;4.05;;;4.50;82.50;;;;;;5090519;28;20067;-59
2023/01/23 01:25:40;;;;;;;9.88;5.07;;;4.50;82.40;;;;;;5091883;28;20417;-67
2023/01/23 01:28:06;;;;;;;6.10;4.80;;;4.50;82.40;;;;;;5096713;28;20477;-61
2023/01/23 01:30:31;;;;;;;6.55;4.03;;;4.50;82.40;;;;;;5097077;28;20040;-60
2023/01/23 01:32:57;;;;;;;7.07;4.30;;;4.60;82.50;;;;;;5099240;28;20378;-66
2023/01/23 01:35:23;;;;;;;8.20;5.68;;;4.60;82.50;;;;;;5093582;28;20030;-66
2023/01/23 01:37:50;;;;;;;8.70;4.88;;;4.60;82.50;;;;;;5085352;28;20039;-66
2023/01/23 01:40:19;;;;;;;9.82;5.13;;;4.60;82.50;;;;;;5111820;28;20478;-60
2023/01/23 01:42:59;;;;;;;6.88;4.72;;;4.60;82.50;;;;;;5090087;28;20048;-60
2023/01/23 01:46:01;;;;;;;12.02;5.85;;;4.60;82.50;;;;;;5107363;28;20061;-60
2023/01/23 01:49:05;;;;;;;5.60;3.70;;;4.60;82.50;;;;;;5101378;28;20049;-60
2023/01/23 01:51:43;;;;;;;7.13;4.38;;;4.60;82.50;;;;;;5099672;28;20032;-59
2023/01/23 01:54:44;;;;;;;4.82;3.42;;;4.50;82.70;;;;;;5096155;28;20115;-59
2023/01/23 01:57:34;;;;;;;7.45;4.25;;;4.50;82.60;;;;;;5100434;28;20059;-59
2023/01/23 02:00:21;;;;;;;5.28;3.67;;;4.50;82.60;;;;;;5106395;28;20028;-59
2023/01/23 02:02:59;;;;;;;6.95;4.80;;;4.50;82.70;;;;;;5080205;28;20023;-59
2023/01/23 02:05:29;;;;;;;5.88;4.05;;;4.50;82.80;;;;;;5066354;28;20036;-60
2023/01/23 02:08:03;;;;;;;8.98;5.03;;;4.60;82.80;;;;;;5098025;28;20035;-60
2023/01/23 02:10:31;;;;;;;6.65;4.50;;;4.60;82.80;;;;;;5085926;28;20028;-59
2023/01/23 02:13:23;;;;;;;6.00;3.75;;;4.60;82.80;;;;;;5090398;28;20047;-59
2023/01/23 02:15:50;;;;;;;5.82;4.35;;;4.60;82.70;;;;;;5090860;28;20036;-59
2023/01/23 02:18:15;;;;;;;6.72;4.50;;;4.50;82.70;;;;;;5097706;28;20050;-59
2023/01/23 02:20:41;;;;;;;10.18;4.70;;;4.50;82.80;;;;;;5082695;28;20024;-59
2023/01/23 02:23:24;;;;;;;5.32;3.58;;;4.50;82.90;;;;;;5091169;28;20020;-66
2023/01/23 02:26:00;;;;;;;6.20;4.35;;;4.60;82.90;;;;;;5087139;28;20052;-65
2023/01/23 02:28:47;;;;;;;9.27;4.45;;;4.60;82.90;;;;;;5073101;28;20035;-65
2023/01/23 02:31:14;;;;;;;7.35;5.10;;;4.60;82.80;;;;;;5074711;28;20028;-59
2023/01/23 02:33:42;;;;;;;5.22;3.83;;;4.60;82.90;;;;;;5090237;28;20028;-58
2023/01/23 02:36:09;;;;;;;7.88;4.90;;;4.60;82.70;;;;;;5096969;28;20080;-66
2023/01/23 02:38:45;;;;;;;6.20;4.28;;;4.70;82.70;;;;;;5098915;28;20508;-66
2023/01/23 02:41:13;;;;;;;7.68;4.78;;;4.70;82.70;;;;;;5083681;28;20016;-60
2023/01/23 02:43:39;;;;;;;8.88;4.70;;;4.70;82.70;;;;;;5073206;28;20494;-66
2023/01/23 02:46:07;;;;;;;8.52;5.65;;;4.80;82.70;;;;;;5103663;28;20020;-61
2023/01/23 02:48:33;;;;;;;9.88;5.25;;;4.80;82.70;;;;;;5091520;28;20394;-66
2023/01/23 02:50:59;;;;;;;11.68;5.88;;;4.80;82.60;;;;;;5109978;28;20103;-66
2023/01/23 02:53:25;;;;;;;6.88;4.60;;;4.80;82.70;;;;;;5104488;28;20111;-66
2023/01/23 02:55:51;;;;;;;10.25;5.53;;;4.80;82.70;;;;;;5093295;28;20141;-66
2023/01/23 03:01:02;;;;;;;7.85;4.82;;;4.80;82.80;;;;;;5110993;28;20062;-60
2023/01/23 03:03:29;;;;;;;10.30;4.50;;;4.80;82.70;;;;;;5100087;28;20401;-60
2023/01/23 03:05:56;;;;;;;8.00;4.63;;;4.80;82.70;;;;;;5089152;28;20051;-66
2023/01/23 03:08:22;;;;;;;10.10;4.75;;;4.80;82.70;;;;;;5108241;28;20032;-67
2023/01/23 03:10:48;;;;;;;9.93;5.07;;;4.80;82.70;;;;;;5109405;28;20043;-67
2023/01/23 03:13:14;;;;;;;6.20;5.05;;;4.80;82.70;;;;;;5103237;28;20032;-67
2023/01/23 03:15:41;;;;;;;8.02;5.43;;;4.80;82.80;;;;;;5108148;28;20086;-66
2023/01/23 03:18:07;;;;;;;9.90;4.70;;;4.80;82.70;;;;;;5108602;28;20106;-60
2023/01/23 03:20:40;;;;;;;7.32;3.88;;;4.80;82.80;;;;;;5087192;28;20112;-65
2023/01/23 03:23:07;;;;;;;7.03;4.57;;;4.80;82.80;;;;;;5107076;28;20024;-65
2023/01/23 03:25:32;;;;;;;6.00;4.28;;;4.80;82.80;;;;;;5098780;28;20046;-66
2023/01/23 03:27:58;;;;;;;6.97;4.85;;;4.80;82.80;;;;;;5081318;28;20114;-60
2023/01/23 03:30:24;;;;;;;25.23;4.28;;;4.90;82.70;;;;;;5089520;28;20043;-66
2023/01/23 03:32:51;;;;;;;7.13;4.45;;;4.90;82.70;;;;;;5099852;28;20016;-66
2023/01/23 03:35:19;;;;;;;5.82;4.18;;;4.80;82.70;;;;;;5076192;28;20046;-66
2023/01/23 03:37:48;;;;;;;6.95;4.30;;;4.80;83.30;;;;;;5093818;28;20083;-66
2023/01/23 03:43:07;;;;;;;;;;;4.90;82.70;;;;;;5097955;28;20124;-60
2023/01/23 03:45:32;;;;;;;4.85;4.00;;;4.80;82.80;;;;;;5104512;28;19912;-66
2023/01/23 03:47:58;;;;;;;5.65;4.53;;;4.80;82.90;;;;;;5100896;28;20035;-66
2023/01/23 03:50:24;;;;;;;10.43;4.28;;;4.80;82.90;;;;;;5090177;28;20115;-66
2023/01/23 03:52:50;;;;;;;8.73;5.40;;;4.80;82.90;;;;;;5076715;28;20040;-66
2023/01/23 03:55:15;;;;;;;11.68;5.03;;;4.80;82.90;;;;;;5101176;28;20219;-66
2023/01/23 03:57:41;;;;;;;7.20;4.68;;;4.70;83.00;;;;;;5083216;28;20028;-66
2023/01/23 04:00:09;;;;;;;6.63;4.63;;;4.70;83.00;;;;;;5085488;28;20448;-59
2023/01/23 04:02:35;;;;;;;7.75;5.10;;;4.70;83.10;;;;;;5085540;28;20080;-66
2023/01/23 04:05:00;;;;;;;9.75;4.25;;;4.70;83.10;;;;;;5075958;28;20419;-60
2023/01/23 04:07:26;;;;;;;10.05;4.72;;;4.80;83.10;;;;;;5100371;28;20383;-60
2023/01/23 04:09:51;;;;;;;10.63;5.38;;;4.80;83.10;;;;;;5090556;28;20391;-58
2023/01/23 04:12:17;;;;;;;8.27;4.47;;;4.80;83.10;;;;;;5088244;28;20398;-60
2023/01/23 04:14:43;;;;;;;7.97;5.05;;;4.80;83.10;;;;;;5091096;28;20752;-62
2023/01/23 04:17:10;;;;;;;7.03;4.68;;;4.80;83.10;;;;;;5071178;28;20024;-59
2023/01/23 04:19:35;;;;;;;10.32;6.03;;;4.80;83.10;;;;;;5091568;28;20044;-58
2023/01/23 04:22:01;;;;;;;13.82;5.93;;;4.80;83.10;;;;;;5082926;28;20028;-58
2023/01/23 04:24:27;;;;;;;12.55;4.88;;;4.80;83.10;;;;;;5092195;28;20028;-64
2023/01/23 04:26:53;;;;;;;7.38;5.07;;;4.80;83.10;;;;;;5051914;28;20040;-64
2023/01/23 04:29:18;;;;;;;6.53;4.53;;;4.80;83.20;;;;;;5090116;28;20115;-64
2023/01/23 04:31:44;;;;;;;5.55;4.60;;;4.80;83.10;;;;;;5089173;28;20857;-65
2023/01/23 04:34:10;;;;;;;6.70;4.85;;;4.80;83.10;;;;;;5092221;28;20137;-65
2023/01/23 04:36:36;;;;;;;15.35;5.28;;;4.80;83.10;;;;;;5086778;28;20088;-66
2023/01/23 04:39:02;;;;;;;12.82;5.25;;;4.80;83.10;;;;;;5086483;28;20113;-66
2023/01/23 04:41:29;;;;;;;17.48;5.90;;;4.80;83.10;;;;;;5077489;28;20028;-60
2023/01/23 04:43:55;;;;;;;8.95;4.97;;;4.80;83.10;;;;;;5096887;28;20370;-60
2023/01/23 04:46:21;;;;;;;10.20;5.57;;;4.80;83.10;;;;;;5097851;28;20034;-60
2023/01/23 04:48:47;;;;;;;6.30;4.75;;;4.80;83.10;;;;;;5106646;28;20051;-60
2023/01/23 04:51:13;;;;;;;9.75;5.88;;;4.80;83.10;;;;;;5109567;28;20028;-60
2023/01/23 04:53:39;;;;;;;9.15;5.40;;;4.80;83.10;;;;;;5103363;28;20039;-60
2023/01/23 04:56:05;;;;;;;8.02;4.85;;;4.80;83.10;;;;;;5096417;28;20122;-60
2023/01/23 04:58:30;;;;;;;10.35;5.35;;;4.80;83.10;;;;;;5100938;28;20032;-59
2023/01/23 05:01:06;;;;;;;9.57;4.50;;;4.80;83.10;;;;;;5089299;28;20051;-59
2023/01/23 05:03:33;;;;;;;6.50;5.30;;;4.80;83.10;;;;;;5093929;28;20012;-67
2023/01/23 05:05:59;;;;;;;11.40;5.10;;;4.80;83.10;;;;;;5078758;28;20404;-67
2023/01/23 05:08:25;;;;;;;8.20;4.93;;;4.80;83.10;;;;;;5087003;28;20032;-60
2023/01/23 05:10:50;;;;;;;6.40;4.00;;;4.80;83.10;;;;;;5089117;28;20073;-68
2023/01/23 05:13:16;;;;;;;5.05;4.22;;;4.80;83.20;;;;;;5073932;28;20080;-60
2023/01/23 05:15:42;;;;;;;6.75;4.65;;;4.80;83.10;;;;;;5094829;28;20028;-59
2023/01/23 05:18:07;;;;;;;6.80;4.78;;;4.80;83.10;;;;;;5093221;28;20363;-60
2023/01/23 05:20:33;;;;;;;10.07;5.35;;;4.90;83.20;;;;;;5085381;28;20028;-59
2023/01/23 05:22:59;;;;;;;5.63;4.20;;;4.90;83.20;;;;;;5101849;28;20024;-59
2023/01/23 05:25:27;;;;;;;9.90;4.72;;;4.90;83.20;;;;;;5082356;28;20479;-61
2023/01/23 05:27:53;;;;;;;6.65;5.35;;;4.90;83.20;;;;;;5078255;28;20119;-68
2023/01/23 05:30:21;;;;;;;8.07;5.45;;;4.90;83.20;;;;;;5105175;28;20114;-59
2023/01/23 05:32:47;;;;;;;9.50;4.93;;;4.90;83.10;;;;;;5093979;28;20019;-59
2023/01/23 05:35:13;;;;;;;10.02;5.22;;;4.90;83.00;;;;;;5106483;28;20034;-60
2023/01/23 05:37:38;;;;;;;7.63;4.65;;;4.90;83.60;;;;;;5090398;28;20643;-68
2023/01/23 05:40:07;;;;;;;7.07;3.42;;;5.00;83.00;;;;;;5092602;28;20081;-68
2023/01/23 05:42:33;;;;;;;11.50;5.53;;;5.00;83.00;;;;;;5082009;28;20038;-67
2023/01/23 05:44:59;;;;;;;9.32;5.78;;;4.90;83.60;;;;;;5074279;28;20497;-68
2023/01/23 05:47:24;;;;;;;6.95;4.93;;;4.90;83.10;;;;;;5084735;28;20035;-59
2023/01/23 05:49:50;;;;;;;6.80;4.70;;;4.90;83.20;;;;;;5087550;28;20024;-59
2023/01/23 05:52:16;;;;;;;8.23;5.00;;;4.90;83.20;;;;;;5092296;28;20047;-59
2023/01/23 05:54:41;;;;;;;8.43;3.95;;;4.90;83.10;;;;;;5093652;28;20024;-58
2023/01/23 05:57:08;;;;;;;7.57;4.18;;;5.00;83.20;;;;;;5084286;28;20355;-59
2023/01/23 05:59:34;;;;;;;7.82;4.90;;;5.00;83.10;;;;;;5096909;28;20028;-59
2023/01/23 06:01:59;;;;;;;5.68;4.45;;;5.00;83.10;;;;;;5086127;28;20152;-59
2023/01/23 06:04:25;;;;;;;7.80;4.45;;;4.90;83.10;;;;;;5086646;28;20024;-60
2023/01/23 06:06:51;;;;;;;9.82;4.97;;;4.90;83.20;;;;;;5091011;28;20115;-59
2023/01/23 06:09:16;;;;;;;11.70;4.45;;;4.90;83.20;;;;;;5096674;28;20060;-60
2023/01/23 06:11:42;;;;;;;9.32;5.32;;;4.90;83.20;;;;;;5097059;28;20482;-58
2023/01/23 06:14:08;;;;;;;10.38;4.35;;;4.90;83.20;;;;;;5088195;28;20043;-59
2023/01/23 06:16:33;;;;;;;5.40;4.63;;;4.90;83.20;;;;;;5093379;28;20031;-70
2023/01/23 06:18:59;;;;;;;8.57;5.20;;;4.90;83.30;;;;;;5099713;28;20042;-60
2023/01/23 06:21:25;;;;;;;6.22;4.32;;;4.90;83.30;;;;;;5092228;28;20036;-68
2023/01/23 06:23:51;;;;;;;10.20;4.88;;;4.90;83.40;;;;;;5096106;28;20501;-68
2023/01/23 06:26:16;;;;;;;7.70;4.57;;;4.90;83.30;;;;;;5084825;28;20044;-69
2023/01/23 06:28:42;;;;;;;8.32;5.85;;;4.90;83.20;;;;;;5087478;28;20036;-68
2023/01/23 06:31:09;;;;;;;8.32;4.53;;;4.90;83.20;;;;;;5100847;28;20534;-68
2023/01/23 06:33:35;;;;;;;12.13;5.32;;;5.00;83.20;;;;;;5091133;28;20044;-68
2023/01/23 06:36:03;;;;;;;7.40;4.40;;;5.00;83.20;;;;;;5102312;28;20031;-60
2023/01/23 06:38:29;;;;;;;7.40;4.32;;;5.00;83.20;;;;;;5095006;28;20114;-60
2023/01/23 06:40:55;;;;;;;11.98;5.43;;;5.00;83.10;;;;;;5085757;28;20027;-67
2023/01/23 06:43:22;;;;;;;7.55;4.72;;;5.00;83.10;;;;;;5090938;28;20494;-70
2023/01/23 06:45:47;;;;;;;7.57;4.07;;;5.00;83.20;;;;;;5101459;28;20018;-69
2023/01/23 06:48:13;;;;;;;8.55;4.80;;;5.00;83.10;;;;;;5077168;28;20036;-70
2023/01/23 06:50:40;;;;;;;8.25;5.75;;;5.00;83.10;;;;;;5099177;28;20035;-70
2023/01/23 06:53:07;;;;;;;7.95;4.43;;;5.00;83.10;;;;;;5089767;28;20048;-69
2023/01/23 06:55:33;;;;;;;15.82;5.75;;;5.00;83.10;;;;;;5094312;28;20036;-61
2023/01/23 06:57:59;;;;;;;5.78;4.80;;;5.00;83.10;;;;;;5093296;28;20093;-60
2023/01/23 07:00:25;;;;;;;8.85;5.22;;;5.00;83.20;;;;;;5097772;28;20043;-67
2023/01/23 07:02:51;;;;;;;6.38;4.40;;;5.00;83.20;;;;;;5086163;28;20023;-60
2023/01/23 07:05:18;;;;;;;7.13;4.18;;;5.00;83.20;;;;;;5099775;28;20020;-65
2023/01/23 07:07:44;;;;;;;10.38;5.55;;;5.00;83.20;;;;;;5099433;28;20413;-65
2023/01/23 07:10:10;;;;;;;10.05;5.03;;;5.00;83.20;;;;;;5101024;28;20036;-61
2023/01/23 07:12:36;;;;;;;7.20;5.30;;;5.00;83.20;;;;;;5087989;28;20096;-65
2023/01/23 07:15:02;;;;;;;9.18;5.35;;;5.00;83.20;;;;;;5094403;28;20024;-64
2023/01/23 07:17:28;;;;;;;6.55;4.93;;;5.00;83.30;;;;;;5091245;28;20108;-59
2023/01/23 07:19:54;;;;;;;9.32;4.55;;;4.90;83.20;;;;;;5093072;28;20430;-60
2023/01/23 07:22:21;;;;;;;7.40;4.10;;;5.00;83.30;;;;;;5089818;28;20455;-59
2023/01/23 07:24:47;;;;;;;7.68;5.18;;;4.90;83.30;;;;;;5088815;28;20505;-59
2023/01/23 07:27:13;;;;;;;6.43;4.55;;;5.00;83.30;;;;;;5093518;28;20032;-59
2023/01/23 07:29:40;;;;;;;7.20;4.70;;;5.00;83.20;;;;;;5089709;28;20032;-63
2023/01/23 07:32:06;;;;;;;6.18;4.18;;;5.00;83.20;;;;;;5086603;28;20507;-59
2023/01/23 07:34:31;;;;;;;7.82;4.95;;;5.00;83.20;;;;;;5103826;28;20024;-59
2023/01/23 07:36:57;;;;;;;7.63;5.00;;;5.00;83.20;;;;;;5071697;28;20119;-64
2023/01/23 07:39:23;;;;;;;6.90;4.80;;;5.10;83.20;;;;;;5100141;28;20035;-64
2023/01/23 07:41:49;;;;;;;9.60;4.90;;;5.10;83.20;;;;;;5071889;28;20032;-60
2023/01/23 07:44:17;;;;;;;9.38;4.78;;;5.10;83.10;;;;;;5096526;28;20573;-60
2023/01/23 07:46:44;;;;;;;8.23;5.05;;;5.10;83.10;;;;;;5088099;28;20522;-60
2023/01/23 07:49:10;;;;;;;6.28;4.40;;;5.10;83.10;;;;;;5109327;28;20034;-65
2023/01/23 07:51:35;;;;;;;4.05;3.30;;;5.10;83.20;;;;;;5109789;28;20036;-60
2023/01/23 07:54:01;;;;;;;5.65;4.65;;;5.10;83.20;;;;;;5076211;28;20032;-60
2023/01/23 07:56:27;;;;;;;9.07;4.55;;;5.10;83.10;;;;;;5090497;28;20036;-61
2023/01/23 07:58:52;;;;;;;9.45;4.88;;;5.10;83.20;;;;;;5087351;28;20028;-64
2023/01/23 08:01:18;;;;;;;14.25;5.10;;;5.20;83.10;;;;;;5089327;28;20031;-65
2023/01/23 08:03:47;;;;;;;7.30;4.57;;;5.20;83.00;;;;;;5088021;28;20075;-60
2023/01/23 08:06:13;;;;;;;7.30;4.40;;;5.20;83.00;;;;;;5089414;28;20028;-65
2023/01/23 08:08:38;;;;;;;13.50;5.20;;;5.20;83.00;;;;;;5095689;28;20379;-60
2023/01/23 08:11:06;;;;;;;7.55;4.38;;;5.20;82.90;;;;;;5109665;28;20085;-60
2023/01/23 08:13:31;;;;;;;7.95;4.22;;;5.20;82.90;;;;;;5083535;28;20058;-60
2023/01/23 08:15:58;;;;;;;10.52;5.53;;;5.20;83.00;;;;;;5108990;28;20059;-65
2023/01/23 08:18:24;;;;;;;7.90;4.88;;;5.20;83.00;;;;;;5079630;28;20412;-67
2023/01/23 08:20:58;;;;;;;8.02;5.10;;;5.20;83.10;;;;;;5095995;28;20031;-64
2023/01/23 08:23:26;;;;;;;6.43;4.50;;;5.30;83.10;;;;;;5091647;28;20106;-61
2023/01/23 08:25:53;;;;;;;7.57;4.18;;;5.20;83.10;;;;;;5086080;28;20501;-64
2023/01/23 08:28:19;;;;;;;10.38;4.25;;;5.20;83.00;;;;;;5099846;28;20080;-60
2023/01/23 08:30:45;;;;;;;6.97;3.90;;;5.20;83.10;;;;;;5098669;28;20494;-59
2023/01/23 08:33:11;;;;;;;6.32;4.35;;;5.30;83.10;;;;;;5072475;28;20039;-61
2023/01/23 08:35:37;;;;;;;8.90;4.35;;;5.30;83.10;;;;;;5061908;28;20136;-59
2023/01/23 08:38:03;;;;;;;8.18;4.70;;;5.30;83.10;;;;;;5099695;28;20140;-59
2023/01/23 08:40:29;;;;;;;8.07;4.88;;;5.30;83.00;;;;;;5096449;28;20467;-65
2023/01/23 08:42:54;;;;;;;9.70;4.57;;;5.40;83.00;;;;;;5089286;28;20036;-65
2023/01/23 08:45:21;;;;;;;6.55;4.90;;;5.40;83.00;;;;;;5098366;28;20031;-64
2023/01/23 08:47:47;;;;;;;14.57;4.82;;;5.40;82.90;;;;;;5080084;28;20044;-64
2023/01/23 08:50:13;;;;;;;5.35;3.53;;;5.40;82.90;;;;;;5089897;28;20055;-64
2023/01/23 08:52:39;;;;;;;8.27;5.70;;;5.50;82.90;;;;;;5079838;28;20032;-65
2023/01/23 08:55:05;;;;;;;8.32;4.43;;;5.50;82.90;;;;;;5096424;28;20458;-65
2023/01/23 08:57:31;;;;;;;6.95;4.20;;;5.50;82.80;;;;;;5090892;28;20024;-69
2023/01/23 08:59:56;;;;;;;6.78;4.00;;;5.50;82.80;;;;;;5068521;28;20545;-62
2023/01/23 09:02:22;;;;;;;7.25;4.88;;;5.50;82.70;;;;;;5077659;28;20021;-63
2023/01/23 09:04:48;;;;;;;8.23;5.47;;;5.50;82.80;;;;;;5096794;28;20072;-62
2023/01/23 09:07:13;;;;;;;7.63;4.65;;;5.50;82.80;;;;;;5081686;28;20028;-62
2023/01/23 09:09:39;;;;;;;8.63;4.65;;;5.50;82.80;;;;;;5088071;28;20082;-64
2023/01/23 09:12:05;;;;;;;7.40;4.90;;;5.60;82.80;;;;;;5096419;28;20427;-62
2023/01/23 09:14:30;;;;;;;7.95;5.40;;;5.60;82.70;;;;;;5093542;28;20027;-62
2023/01/23 09:16:56;;;;;;;6.57;4.97;;;5.60;82.70;;;;;;5089178;28;20478;-65
2023/01/23 09:19:22;;;;;;;7.93;4.97;;;5.60;82.70;;;;;;5087503;28;20029;-64
2023/01/23 09:21:47;;;;;;;6.88;4.32;;;5.60;82.70;;;;;;5070042;28;20107;-59
2023/01/23 09:24:13;;;;;;;6.32;3.95;;;5.60;82.70;;;;;;5088883;28;20024;-65
2023/01/23 09:26:39;;;;;;;9.35;5.72;;;5.70;82.70;;;;;;5086860;28;20036;-60
2023/01/23 09:29:04;;;;;;;8.25;5.03;;;5.70;82.70;;;;;;5089599;28;20059;-60
2023/01/23 09:31:30;;;;;;;6.05;4.75;;;5.70;82.60;;;;;;5087315;28;20024;-61
2023/01/23 09:33:56;;;;;;;8.98;5.22;;;5.80;82.70;;;;;;5087361;28;20432;-60
2023/01/23 09:36:22;;;;;;;9.73;5.53;;;5.80;82.70;;;;;;5070744;28;20028;-60
2023/01/23 09:38:48;;;;;;;6.68;5.40;;;5.80;82.60;;;;;;5078747;28;20394;-60
2023/01/23 09:41:24;;;;;;;7.72;3.80;;;5.80;82.60;;;;;;5088359;28;20139;-60
2023/01/23 09:43:57;;;;;;;5.82;3.70;;;5.90;82.60;;;;;;5093739;28;20020;-64
2023/01/23 09:46:36;;;;;;;7.28;4.00;;;5.80;82.60;;;;;;5093823;28;20020;-64
2023/01/23 09:49:10;;;;;;;8.02;4.75;;;5.90;82.60;;;;;;5090767;28;20078;-64
2023/01/23 09:51:55;;;;;;;5.45;3.55;;;5.90;82.60;;;;;;5084830;28;20176;-63
2023/01/23 09:54:43;;;;;;;9.05;5.38;;;5.90;82.60;;;;;;5099651;28;20027;-64
2023/01/23 09:57:31;;;;;;;9.95;4.88;;;5.90;82.50;;;;;;5091988;28;20036;-64
2023/01/23 10:00:30;;;;;;;8.63;5.18;;;6.00;82.40;;;;;;5089834;28;20498;-64
2023/01/23 10:03:01;;;;;;;7.03;4.82;;;6.00;82.20;;;;;;5078447;28;20035;-64
2023/01/23 10:05:57;;;;;;;7.30;4.95;;;6.00;82.30;;;;;;5092093;28;20028;-64
2023/01/23 10:09:04;;;;;;;5.85;3.83;;;6.10;82.20;;;;;;5087637;28;20032;-64
2023/01/23 10:12:06;;;;;;;7.75;5.28;;;6.10;82.20;;;;;;5050132;28;20059;-64
2023/01/23 10:15:02;;;;;;;6.30;4.47;;;6.10;82.10;;;;;;5100360;28;20497;-64
2023/01/23 10:17:32;;;;;;;7.15;4.15;;;6.20;82.10;;;;;;5087832;28;20016;-65
2023/01/23 10:20:09;;;;;;;7.63;4.72;;;6.10;82.10;;;;;;5089397;28;20020;-64
2023/01/23 10:23:01;;;;;;;7.00;4.22;;;6.20;81.90;;;;;;5092968;28;20040;-64
2023/01/23 10:25:34;;;;;;;7.07;4.85;;;6.20;81.90;;;;;;5066804;28;20043;-64
2023/01/23 10:28:14;;;;;;;6.65;4.18;;;6.30;81.90;;;;;;5084212;28;20093;-64
2023/01/23 10:30:42;;;;;;;7.47;4.97;;;6.30;81.70;;;;;;5088436;28;20537;-64
2023/01/23 10:33:16;;;;;;;6.25;4.28;;;6.30;81.70;;;;;;5069129;28;20036;-63
2023/01/23 10:35:50;;;;;;;6.53;4.07;;;6.40;81.80;;;;;;5088491;28;20020;-66
2023/01/23 10:38:33;;;;;;;5.32;3.65;;;6.40;81.70;;;;;;5088601;28;20032;-63
2023/01/23 10:41:18;;;;;;;3.83;3.30;;;6.40;81.60;;;;;;5090761;28;20106;-64
2023/01/23 10:43:47;;;;;;;7.22;4.95;;;6.40;81.60;;;;;;5090682;28;20090;-64
2023/01/23 10:46:19;;;;;;;6.90;4.10;;;6.50;81.60;;;;;;5093018;28;20108;-61
2023/01/23 10:48:49;;;;;;;7.18;4.57;;;6.50;81.50;;;;;;5071786;28;20031;-61
2023/01/23 10:51:49;;;;;;;8.27;4.75;;;6.50;81.50;;;;;;5079975;28;20133;-61
2023/01/23 10:54:18;;;;;;;5.80;4.35;;;6.60;81.30;;;;;;5084568;28;20036;-60
2023/01/23 10:56:53;;;;;;;9.90;5.28;;;6.60;81.30;;;;;;5098282;28;20074;-62
2023/01/23 10:59:31;;;;;;;7.45;5.13;;;6.70;81.30;;;;;;5084177;28;20161;-64
2023/01/23 11:02:30;;;;;;;11.55;6.22;;;6.70;81.20;;;;;;5082651;28;20028;-64
2023/01/23 11:04:57;;;;;;;6.20;4.63;;;6.70;81.00;;;;;;5082595;28;21017;-61
2023/01/23 11:07:36;;;;;;;7.55;5.35;;;6.70;81.10;;;;;;5082583;28;20086;-61
2023/01/23 11:10:11;;;;;;;7.18;4.80;;;6.80;80.90;;;;;;5084501;28;20463;-61
2023/01/23 11:12:53;;;;;;;5.10;4.18;;;6.80;80.90;;;;;;5091328;28;20038;-64
2023/01/23 11:15:21;;;;;;;5.78;4.22;;;6.80;80.80;;;;;;5092328;28;20039;-62
2023/01/23 11:17:52;;;;;;;7.88;4.95;;;6.80;80.80;;;;;;5096370;28;20032;-62
2023/01/23 11:20:28;;;;;;;7.30;4.82;;;6.80;80.80;;;;;;5091416;28;20032;-61
2023/01/23 11:23:16;;;;;;;8.95;5.13;;;6.80;80.80;;;;;;5073753;28;20118;-64
2023/01/23 11:25:50;;;;;;;7.30;5.03;;;6.80;80.70;;;;;;5086962;28;20043;-64
2023/01/23 11:28:15;;;;;;;8.32;5.45;;;6.80;80.70;;;;;;5075767;28;20115;-64
2023/01/23 11:30:48;;;;;;;7.93;5.38;;;6.80;80.90;;;;;;5092887;28;20130;-64
2023/01/23 11:33:35;;;;;;;6.60;4.50;;;6.80;80.70;;;;;;5091099;28;20458;-64
2023/01/23 11:36:16;;;;;;;6.60;4.90;;;6.90;80.60;;;;;;5092060;28;20024;-65
2023/01/23 11:38:56;;;;;;;8.63;5.18;;;6.90;80.40;;;;;;5095216;28;20036;-65
2023/01/23 11:41:28;;;;;;;5.13;3.85;;;6.80;80.40;;;;;;5093349;28;20023;-63
2023/01/23 11:43:54;;;;;;;8.18;4.85;;;6.80;80.50;;;;;;5093987;28;20367;-61
2023/01/23 11:46:37;;;;;;;10.10;5.45;;;6.80;80.50;;;;;;5096969;28;20536;-64
2023/01/23 11:49:32;;;;;;;8.43;4.90;;;6.80;80.50;;;;;;5090874;28;20036;-64
2023/01/23 11:52:31;;;;;;;7.68;4.93;;;6.80;80.60;;;;;;5084017;28;20039;-64
2023/01/23 11:55:55;;;;;;;5.65;4.40;;;6.90;80.50;;;;;;5085368;28;20076;-64
2023/01/23 11:58:23;;;;;;;;;;;6.80;80.40;;;;;;5004148;28;20034;-64
2023/01/23 12:01:30;;;;;;;7.55;4.53;;;6.80;80.40;;;;;;5001595;28;19909;-64
2023/01/23 12:04:22;;;;;;;6.22;4.50;;;6.80;80.40;;;;;;5016421;28;20032;-64
2023/01/23 12:07:17;;;;;;;4.43;3.67;;;6.80;80.40;;;;;;5084439;28;20138;-64
2023/01/23 12:09:50;;;;;;;6.28;4.10;;;6.80;80.40;;;;;;5087722;28;20046;-63
2023/01/23 12:12:49;;;;;;;7.68;3.88;;;6.80;80.40;;;;;;5091746;28;20039;-64
2023/01/23 12:15:39;;;;;;;5.88;3.72;;;6.70;80.30;;;;;;5071780;28;20132;-64
2023/01/23 12:18:20;;;;;;;6.95;3.60;;;6.70;80.30;;;;;;5093588;28;20023;-64
2023/01/23 12:20:58;;;;;;;8.70;5.03;;;6.70;80.40;;;;;;5087817;28;20111;-64
2023/01/23 12:23:54;;;;;;;9.30;4.43;;;6.70;80.30;;;;;;5084051;28;20612;-61
2023/01/23 12:26:21;;;;;;;6.32;4.47;;;6.80;80.40;;;;;;5087370;28;20066;-64
2023/01/23 12:29:24;;;;;;;11.75;4.82;;;6.80;80.30;;;;;;5067345;28;20031;-61
2023/01/23 12:31:58;;;;;;;7.80;5.05;;;6.90;80.10;;;;;;5085450;28;20030;-63
2023/01/23 12:35:09;;;;;;;6.00;3.83;;;6.90;80.10;;;;;;5088202;28;20068;-62
2023/01/23 12:38:10;;;;;;;6.50;4.35;;;6.90;80.00;;;;;;5082322;28;20398;-62
2023/01/23 12:40:54;;;;;;;6.93;4.60;;;7.00;79.90;;;;;;5087132;28;20483;-62
2023/01/23 12:43:53;;;;;;;7.35;4.68;;;7.00;79.90;;;;;;5086480;28;20077;-65
2023/01/23 12:46:27;;;;;;;6.40;4.05;;;7.00;79.60;;;;;;5072422;28;20127;-62
2023/01/23 12:49:03;;;;;;;5.63;4.25;;;7.10;79.70;;;;;;5088355;28;20024;-64
2023/01/23 12:51:44;;;;;;;5.03;4.25;;;7.10;79.70;;;;;;5090801;28;20409;-62
2023/01/23 12:54:20;;;;;;;5.05;3.85;;;7.10;79.60;;;;;;5088308;28;20032;-61
2023/01/23 12:56:46;;;;;;;9.00;4.68;;;7.20;79.50;;;;;;5083279;28;20044;-61
2023/01/23 12:59:26;;;;;;;6.28;5.07;;;7.20;79.30;;;;;;5072065;28;20517;-61
2023/01/23 13:02:21;;;;;;;7.22;4.00;;;7.30;79.30;;;;;;5087282;28;20078;-64
2023/01/23 13:05:31;;;;;;;5.78;4.20;;;7.30;79.10;;;;;;5087355;28;20016;-64
2023/01/23 13:08:21;;;;;;;8.25;5.38;;;7.40;78.90;;;;;;5081681;28;20111;-64
2023/01/23 13:13:46;;;;;;;7.93;4.28;;;7.40;78.80;;;;;;5089739;28;20039;-65
2023/01/23 13:16:14;;;;;;;7.18;4.80;;;7.50;78.80;;;;;;5087112;28;20467;-65
2023/01/23 13:27:56;;;;;;;7.47;3.05;;;7.30;78.50;;;;;;5094893;28;20058;-61
2023/01/23 13:30:25;;;;;;;5.95;3.53;;;7.30;78.50;;;;;;5029136;28;20037;-65
2023/01/23 13:32:53;;;;;;;6.00;3.35;;;7.20;78.80;;;;;;5085675;28;20471;-65